Ana Sayfa
METAR-TAF:

METAR-TAF

Havaalanları :

Maseru, Lesotho

Enlem: 29-27S, Boylam: 027-33E, yükseklik: 1631 m

Güncel hava durumu gözlemi

Rapor saat 07:00 UTC de 36 dakika önce yapıldı.
Sakin rüzgar
Sıcaklık 16°C
Nem 34%
Basınç 1024 hPa
Görüş mesafesi 10 km veya daha fazla
1500 m altında bulut yok ve kümülonimbus yok

METAR: FXMM 150700Z 00000KT CAVOK 16/00 Q1024 NOSIG

Saat: 09:36 (07:36 UTC)


TAF: eksik

4.000'den fazla havaalanı için hava durumu gözlemleri ve tahminleri (METAR ve TAF raporları).

Kullanılabilir istasyonlar harita üzerinde sarı ve kırmızı noktalarla gösterilir.

İstasyonun adını görmek için fareyi noktanın üzerinde gezdirin.

Sonrasında hava gözlem ve tahminlerini görmek için tıklayın.

Haritayı değiştirmek için: yaklaştırmak için siyah artı işaretli yeşil düğmeye ve uzaklaştırmak için de eksi işaretli düğmeye hızla tıklayın; bitişik haritalar için yeşil okları kullanın.


METAR-TAF: